Time;durP1;ratioP1;P1;durP2;ratioP2;P2;SDS_P1;SDS_P2;PMS_P1;PMS_P2;Temp;Humidity;BMP_temperature;BMP_pressure;BME280_temperature;BME280_humidity;BME280_pressure;Samples;Min_cycle;Max_cycle;Signal;HPM_P1;HPM_P2
2022/05/22 00:01:53;;;;;;;8.85;3.65;;;15.30;99.90;;;;;;5035970;28;20080;-54
2022/05/22 00:04:19;;;;;;;10.57;4.00;;;15.40;99.90;;;;;;5034244;28;20036;-55
2022/05/22 00:06:45;;;;;;;4.53;3.25;;;15.20;99.90;;;;;;5035641;28;20108;-53
2022/05/22 00:09:11;;;;;;;7.57;3.45;;;15.20;99.90;;;;;;5034551;28;20105;-53
2022/05/22 00:11:36;;;;;;;9.73;4.82;;;15.10;99.90;;;;;;5034529;28;20018;-51
2022/05/22 00:14:03;;;;;;;4.85;4.07;;;15.00;99.90;;;;;;5034964;28;20025;-51
2022/05/22 00:16:40;;;;;;;7.45;3.50;;;15.00;99.90;;;;;;5034127;28;20036;-53
2022/05/22 00:19:12;;;;;;;3.78;2.60;;;14.90;99.90;;;;;;5034308;28;20089;-52
2022/05/22 00:21:40;;;;;;;3.42;2.83;;;14.90;99.90;;;;;;5035269;28;20103;-53
2022/05/22 00:24:07;;;;;;;4.15;2.65;;;14.80;99.90;;;;;;5034891;28;20030;-52
2022/05/22 00:26:33;;;;;;;6.75;2.58;;;14.80;99.90;;;;;;5034312;28;20032;-51
2022/05/22 00:28:59;;;;;;;4.22;2.10;;;14.70;99.90;;;;;;5034188;28;20071;-52
2022/05/22 00:31:25;;;;;;;6.95;2.80;;;14.80;99.90;;;;;;5033874;28;20026;-56
2022/05/22 00:33:50;;;;;;;6.35;2.47;;;14.80;99.90;;;;;;5034020;28;20108;-56
2022/05/22 00:36:16;;;;;;;6.80;2.40;;;14.80;99.90;;;;;;5034920;28;20422;-52
2022/05/22 00:38:42;;;;;;;7.45;2.72;;;14.80;99.90;;;;;;5033729;28;20026;-55
2022/05/22 00:41:09;;;;;;;5.13;2.70;;;14.90;99.90;;;;;;5033956;28;20045;-53
2022/05/22 00:43:42;;;;;;;6.43;3.10;;;14.90;99.90;;;;;;5033683;28;20033;-51
2022/05/22 00:46:11;;;;;;;5.03;2.17;;;14.80;99.90;;;;;;5034071;28;20032;-57
2022/05/22 00:48:38;;;;;;;4.05;2.78;;;14.70;99.90;;;;;;5035057;28;20057;-58
2022/05/22 00:51:12;;;;;;;4.32;2.25;;;14.70;99.90;;;;;;5033617;28;20487;-52
2022/05/22 00:53:42;;;;;;;4.43;2.25;;;14.70;99.90;;;;;;5050916;28;20021;-53
2022/05/22 00:56:11;;;;;;;5.50;2.47;;;14.70;99.90;;;;;;5033378;28;20022;-52
2022/05/22 00:58:37;;;;;;;5.03;3.08;;;14.70;99.90;;;;;;5034636;28;20340;-54
2022/05/22 01:01:04;;;;;;;4.93;2.22;;;14.70;99.90;;;;;;5034566;28;20021;-56
2022/05/22 01:03:31;;;;;;;4.93;2.00;;;14.70;99.90;;;;;;5034541;28;20025;-56
2022/05/22 01:06:08;;;;;;;6.22;3.13;;;14.70;99.90;;;;;;5034524;28;20136;-56
2022/05/22 01:08:37;;;;;;;5.03;2.67;;;14.70;99.90;;;;;;5034699;28;20111;-56
2022/05/22 01:11:08;;;;;;;9.88;3.47;;;14.60;99.90;;;;;;5033124;28;20025;-58
2022/05/22 01:13:38;;;;;;;;;;;14.60;99.90;;;;;;5034286;28;20049;-58
2022/05/22 01:16:05;;;;;;;5.35;2.60;;;14.70;99.90;;;;;;5034360;28;19905;-57
2022/05/22 01:18:43;;;;;;;6.07;3.13;;;14.70;99.90;;;;;;5033035;28;20026;-58
2022/05/22 01:21:35;;;;;;;8.75;3.03;;;14.60;99.90;;;;;;5032992;28;20033;-58
2022/05/22 01:24:01;;;;;;;6.40;3.58;;;14.70;99.90;;;;;;5028450;28;20033;-57
2022/05/22 01:26:29;;;;;;;8.30;3.10;;;14.50;99.90;;;;;;5032647;28;20580;-58
2022/05/22 01:28:55;;;;;;;7.28;3.22;;;14.50;99.90;;;;;;5033609;28;20116;-58
2022/05/22 01:31:21;;;;;;;6.60;3.42;;;14.40;99.90;;;;;;5032956;28;20053;-53
2022/05/22 01:33:47;;;;;;;6.22;3.15;;;14.30;99.90;;;;;;5033754;28;20033;-56
2022/05/22 01:36:15;;;;;;;11.40;3.70;;;14.30;99.90;;;;;;5033051;28;20052;-58
2022/05/22 01:38:40;;;;;;;11.35;3.38;;;14.20;99.90;;;;;;5032515;28;20129;-58
2022/05/22 01:41:06;;;;;;;7.13;2.80;;;14.30;99.90;;;;;;5032504;28;20543;-58
2022/05/22 01:43:32;;;;;;;11.48;3.40;;;14.40;99.90;;;;;;5032405;28;20029;-58
2022/05/22 01:45:58;;;;;;;3.90;2.70;;;14.30;99.90;;;;;;5032539;28;20071;-58
2022/05/22 01:48:24;;;;;;;7.40;3.00;;;14.30;99.90;;;;;;5032306;28;20025;-53
2022/05/22 01:50:50;;;;;;;5.68;2.80;;;14.20;99.90;;;;;;5033840;28;20029;-52
2022/05/22 01:53:18;;;;;;;6.40;2.55;;;14.10;99.90;;;;;;5048779;28;20021;-55
2022/05/22 01:55:44;;;;;;;6.57;3.33;;;14.10;99.90;;;;;;5032310;28;20022;-56
2022/05/22 01:58:10;;;;;;;4.65;2.72;;;14.10;99.90;;;;;;5033727;28;20101;-52
2022/05/22 02:00:37;;;;;;;5.85;2.72;;;14.10;99.90;;;;;;5033589;28;20053;-56
2022/05/22 02:03:03;;;;;;;4.22;3.35;;;14.20;99.90;;;;;;5032240;28;20030;-54
2022/05/22 02:05:29;;;;;;;6.72;3.20;;;14.10;99.90;;;;;;5033564;28;20029;-55
2022/05/22 02:10:40;;;;;;;3.35;2.67;;;13.90;99.90;;;;;;5033851;28;20033;-57
2022/05/22 02:13:07;;;;;;;11.35;3.35;;;13.80;99.90;;;;;;5033264;28;20044;-53
2022/05/22 02:15:33;;;;;;;11.32;3.08;;;13.70;99.90;;;;;;5031745;28;20028;-54
2022/05/22 02:17:59;;;;;;;4.18;3.05;;;13.80;99.90;;;;;;5032180;28;20029;-56
2022/05/22 02:20:25;;;;;;;6.60;2.58;;;13.70;99.90;;;;;;5032743;28;20133;-55
2022/05/22 02:22:55;;;;;;;6.97;2.45;;;13.60;99.90;;;;;;5031819;28;20033;-55
2022/05/22 02:25:28;;;;;;;6.90;2.67;;;13.50;99.90;;;;;;5031684;28;20559;-54
2022/05/22 02:27:54;;;;;;;6.53;3.10;;;13.50;99.90;;;;;;5032023;28;20026;-55
2022/05/22 02:30:27;;;;;;;9.30;3.00;;;13.40;99.90;;;;;;5031773;28;20021;-55
2022/05/22 02:32:53;;;;;;;8.00;3.13;;;13.40;99.90;;;;;;5033327;28;20025;-52
2022/05/22 02:35:19;;;;;;;5.22;2.80;;;13.40;99.90;;;;;;5031641;28;20090;-51
2022/05/22 02:37:50;;;;;;;4.57;2.60;;;13.30;99.90;;;;;;5031560;28;20364;-51
2022/05/22 02:40:18;;;;;;;5.68;2.95;;;13.30;99.90;;;;;;5031502;28;20562;-51
2022/05/22 02:42:46;;;;;;;6.78;3.45;;;13.40;99.90;;;;;;5032538;28;20365;-53
2022/05/22 02:45:13;;;;;;;5.07;4.03;;;13.40;99.90;;;;;;5031512;28;20026;-54
2022/05/22 02:47:39;;;;;;;4.72;3.15;;;13.40;99.90;;;;;;5032755;28;20025;-53
2022/05/22 02:50:07;;;;;;;8.63;3.15;;;13.40;99.90;;;;;;5031552;28;20017;-55
2022/05/22 02:52:32;;;;;;;9.20;2.83;;;13.30;99.90;;;;;;5047930;28;20021;-53
2022/05/22 02:54:58;;;;;;;8.13;3.72;;;13.30;99.90;;;;;;5031471;28;20468;-55
2022/05/22 02:57:25;;;;;;;7.25;3.40;;;13.30;99.90;;;;;;5032207;28;20025;-55
2022/05/22 02:59:52;;;;;;;4.90;3.10;;;13.30;99.90;;;;;;5031737;28;20032;-53
2022/05/22 03:02:18;;;;;;;5.18;2.75;;;13.30;99.90;;;;;;5031322;28;20030;-56
2022/05/22 03:04:44;;;;;;;5.82;2.75;;;13.30;99.90;;;;;;5031311;28;20029;-55
2022/05/22 03:07:12;;;;;;;10.32;3.40;;;13.20;99.90;;;;;;5031472;28;20086;-54
2022/05/22 03:09:39;;;;;;;5.72;2.90;;;13.20;99.90;;;;;;5032891;28;20018;-56
2022/05/22 03:12:10;;;;;;;3.65;2.80;;;13.10;99.90;;;;;;5031299;28;20036;-54
2022/05/22 03:14:36;;;;;;;3.95;2.70;;;13.10;99.90;;;;;;5031319;28;20060;-56
2022/05/22 03:17:02;;;;;;;11.68;3.50;;;13.10;99.90;;;;;;5031930;28;20068;-57
2022/05/22 03:19:28;;;;;;;9.63;3.53;;;13.00;99.90;;;;;;5032552;28;20026;-56
2022/05/22 03:21:54;;;;;;;8.48;3.47;;;13.00;99.90;;;;;;5031224;28;20107;-55
2022/05/22 03:24:20;;;;;;;8.32;3.55;;;13.00;99.90;;;;;;5032383;28;20045;-56
2022/05/22 03:26:45;;;;;;;6.50;3.38;;;12.90;99.90;;;;;;5032283;28;20083;-57
2022/05/22 03:29:11;;;;;;;6.93;3.05;;;12.90;99.90;;;;;;5032246;28;20022;-56
2022/05/22 03:31:37;;;;;;;8.18;3.60;;;12.90;99.90;;;;;;5031903;28;20042;-55
2022/05/22 03:34:04;;;;;;;8.25;3.72;;;12.90;99.90;;;;;;5032333;28;20366;-53
2022/05/22 03:36:30;;;;;;;8.27;3.50;;;12.90;99.90;;;;;;5031641;28;20044;-52
2022/05/22 03:38:55;;;;;;;6.38;3.03;;;12.90;99.90;;;;;;5030885;28;20021;-50
2022/05/22 03:41:21;;;;;;;6.20;2.97;;;12.90;99.90;;;;;;5032347;28;20024;-52
2022/05/22 03:43:47;;;;;;;10.85;3.33;;;12.90;99.90;;;;;;5032595;28;20472;-52
2022/05/22 03:46:13;;;;;;;9.48;3.13;;;12.90;99.90;;;;;;5031699;28;20033;-53
2022/05/22 03:48:40;;;;;;;5.50;2.78;;;12.90;99.90;;;;;;5032180;28;20025;-52
2022/05/22 03:51:06;;;;;;;5.78;3.58;;;12.90;99.90;;;;;;5031018;28;20021;-50
2022/05/22 03:53:32;;;;;;;5.68;3.53;;;12.90;99.90;;;;;;5031234;28;20037;-51
2022/05/22 03:55:57;;;;;;;7.95;3.40;;;12.90;99.90;;;;;;5033075;28;20033;-51
2022/05/22 03:58:23;;;;;;;7.00;3.28;;;13.00;99.90;;;;;;5034713;28;20113;-52
2022/05/22 04:00:49;;;;;;;4.45;3.38;;;13.00;99.90;;;;;;5035765;28;20026;-52
2022/05/22 04:03:14;;;;;;;5.47;3.10;;;13.00;99.90;;;;;;5034389;28;20048;-49
2022/05/22 04:05:40;;;;;;;5.82;2.97;;;13.00;99.90;;;;;;5034190;28;20475;-49
2022/05/22 04:08:06;;;;;;;8.40;4.13;;;13.00;99.90;;;;;;5034095;28;20025;-55
2022/05/22 04:10:31;;;;;;;5.30;2.88;;;13.00;99.90;;;;;;5034627;28;20033;-56
2022/05/22 04:12:57;;;;;;;5.60;2.75;;;13.00;99.90;;;;;;5035698;28;20076;-53
2022/05/22 04:15:23;;;;;;;4.88;2.90;;;13.10;99.90;;;;;;5034012;28;20022;-57
2022/05/22 04:17:49;;;;;;;6.13;3.35;;;13.40;99.90;;;;;;5034475;28;20045;-57
2022/05/22 04:20:17;;;;;;;6.20;2.70;;;13.70;99.90;;;;;;5035329;28;20029;-57
2022/05/22 04:25:27;;;;;;;4.35;2.97;;;14.20;99.90;;;;;;5035366;28;20052;-52
2022/05/22 04:27:52;;;;;;;7.80;2.95;;;14.50;99.90;;;;;;5035055;28;20029;-51
2022/05/22 04:30:19;;;;;;;4.85;3.22;;;14.80;99.90;;;;;;5035236;28;20026;-54
2022/05/22 04:32:46;;;;;;;4.10;3.00;;;15.00;99.90;;;;;;5051176;28;20053;-51
2022/05/22 04:35:12;;;;;;;4.10;2.83;;;15.20;99.90;;;;;;5035484;28;20026;-51
2022/05/22 04:37:39;;;;;;;7.78;3.15;;;15.40;99.90;;;;;;5035496;28;20074;-52
2022/05/22 04:40:06;;;;;;;5.85;3.13;;;15.70;99.90;;;;;;5035654;28;20025;-54
2022/05/22 04:42:33;;;;;;;7.07;2.70;;;15.90;99.90;;;;;;5035577;28;20033;-55
2022/05/22 04:44:59;;;;;;;6.05;3.15;;;16.10;99.90;;;;;;5033971;28;20468;-57
2022/05/22 04:47:25;;;;;;;6.72;2.75;;;16.30;99.90;;;;;;5033950;28;20025;-53
2022/05/22 04:49:50;;;;;;;4.72;3.28;;;16.50;99.90;;;;;;5033903;28;20025;-55
2022/05/22 04:52:16;;;;;;;7.40;3.00;;;16.80;99.90;;;;;;5034119;28;20049;-55
2022/05/22 04:54:42;;;;;;;5.30;2.47;;;17.10;99.90;;;;;;5034117;28;20024;-56
2022/05/22 04:57:08;;;;;;;5.85;2.75;;;17.50;99.90;;;;;;5035374;28;20029;-57
2022/05/22 04:59:33;;;;;;;5.43;2.72;;;17.80;99.90;;;;;;5033645;28;20022;-57
2022/05/22 05:02:00;;;;;;;3.72;2.38;;;18.10;99.90;;;;;;5035225;28;20025;-55
2022/05/22 05:04:25;;;;;;;5.68;2.75;;;18.10;99.90;;;;;;5033929;28;20079;-53
2022/05/22 05:06:52;;;;;;;4.80;2.67;;;18.10;99.90;;;;;;5033878;28;20025;-54
2022/05/22 05:09:18;;;;;;;6.18;2.88;;;18.20;99.90;;;;;;5034896;28;20017;-56
2022/05/22 05:11:44;;;;;;;10.95;3.88;;;18.50;99.90;;;;;;5033517;28;20429;-56
2022/05/22 05:14:10;;;;;;;5.28;2.65;;;18.90;99.90;;;;;;5034595;28;20026;-57
2022/05/22 05:16:35;;;;;;;8.13;3.15;;;19.30;99.90;;;;;;5034683;28;20030;-57
2022/05/22 05:19:01;;;;;;;5.10;3.10;;;19.70;99.90;;;;;;5035175;28;20025;-58
2022/05/22 05:21:28;;;;;;;6.60;2.78;;;20.00;99.90;;;;;;5034530;28;20014;-57
2022/05/22 05:23:55;;;;;;;4.47;2.40;;;20.40;99.90;;;;;;5034524;28;20028;-57
2022/05/22 05:26:21;;;;;;;7.80;3.10;;;20.70;99.90;;;;;;5034759;28;20013;-57
2022/05/22 05:28:48;;;;;;;6.68;2.50;;;20.80;99.90;;;;;;5034441;28;20032;-58
2022/05/22 05:31:13;;;;;;;6.68;3.00;;;21.00;99.90;;;;;;5034376;28;20092;-57
2022/05/22 05:33:39;;;;;;;9.50;3.40;;;21.40;99.90;;;;;;5033442;28;20187;-56
2022/05/22 05:36:09;;;;;;;4.45;2.55;;;21.90;99.90;;;;;;5034110;28;20038;-58
2022/05/22 05:38:34;;;;;;;4.93;2.50;;;22.40;99.90;;;;;;5034807;28;20017;-58
2022/05/22 05:41:01;;;;;;;6.00;2.33;;;22.90;99.90;;;;;;5034462;28;20029;-58
2022/05/22 05:43:27;;;;;;;9.85;3.05;;;23.30;99.90;;;;;;5034141;28;20021;-58
2022/05/22 05:45:52;;;;;;;5.38;3.03;;;23.50;99.90;;;;;;5034062;28;20036;-58
2022/05/22 05:48:18;;;;;;;6.18;2.88;;;23.80;99.90;;;;;;5034030;28;20022;-58
2022/05/22 05:50:43;;;;;;;4.85;2.67;;;24.00;99.90;;;;;;5033661;28;20041;-58
2022/05/22 05:53:09;;;;;;;5.60;3.30;;;24.10;99.90;;;;;;5032700;28;20030;-58
2022/05/22 05:55:35;;;;;;;6.00;2.33;;;24.30;99.90;;;;;;5033870;28;20021;-58
2022/05/22 05:58:03;;;;;;;3.25;2.67;;;24.80;99.90;;;;;;5033897;28;20037;-58
2022/05/22 06:00:29;;;;;;;3.53;2.50;;;25.20;99.90;;;;;;5032997;28;20029;-58
2022/05/22 06:02:54;;;;;;;4.70;2.90;;;25.50;99.90;;;;;;5032619;28;20032;-58
2022/05/22 06:05:21;;;;;;;4.78;2.17;;;26.00;99.90;;;;;;5032472;28;20029;-58
2022/05/22 06:07:51;;;;;;;9.43;3.78;;;26.10;99.90;;;;;;5032505;28;20033;-58
2022/05/22 06:10:18;;;;;;;4.65;2.88;;;26.20;99.90;;;;;;5032805;28;20029;-57
2022/05/22 06:12:46;;;;;;;7.47;2.67;;;26.00;99.90;;;;;;5033758;28;20460;-58
2022/05/22 06:15:13;;;;;;;3.80;2.30;;;26.30;99.90;;;;;;5033582;28;20018;-58
2022/05/22 06:17:44;;;;;;;5.60;2.95;;;26.50;99.90;;;;;;5032855;28;20029;-58
2022/05/22 06:20:12;;;;;;;5.93;2.83;;;27.20;99.90;;;;;;5034033;28;20022;-58
2022/05/22 06:22:38;;;;;;;5.55;2.28;;;27.80;98.40;;;;;;5033627;28;20029;-59
2022/05/22 06:25:06;;;;;;;5.15;1.98;;;28.10;96.80;;;;;;5033571;28;20030;-59
2022/05/22 06:27:32;;;;;;;7.95;2.53;;;28.80;98.20;;;;;;5032461;28;20487;-57
2022/05/22 06:29:58;;;;;;;7.88;3.33;;;29.40;95.50;;;;;;5032516;28;20029;-59
2022/05/22 06:32:24;;;;;;;5.40;2.65;;;29.70;92.90;;;;;;5032201;28;20022;-59
2022/05/22 06:34:50;;;;;;;8.30;5.03;;;30.10;92.70;;;;;;5032586;28;20044;-59
2022/05/22 06:37:19;;;;;;;7.63;2.80;;;30.60;90.50;;;;;;5033317;28;20057;-59
2022/05/22 06:39:51;;;;;;;5.13;3.20;;;30.40;89.20;;;;;;5033642;28;20056;-59
2022/05/22 06:42:18;;;;;;;8.55;3.20;;;30.80;87.10;;;;;;5033365;28;20028;-58
2022/05/22 06:44:44;;;;;;;6.40;2.65;;;31.40;85.40;;;;;;5032009;28;20480;-59
2022/05/22 06:47:10;;;;;;;3.70;2.13;;;31.30;82.50;;;;;;5031962;28;20064;-59
2022/05/22 06:49:36;;;;;;;5.35;3.00;;;31.60;83.40;;;;;;5033327;28;20022;-58
2022/05/22 06:52:02;;;;;;;6.82;3.17;;;31.00;79.20;;;;;;5033315;28;20025;-59
2022/05/22 06:54:30;;;;;;;3.13;2.17;;;30.50;82.20;;;;;;5031931;28;20017;-61
2022/05/22 06:56:57;;;;;;;4.63;2.53;;;30.90;86.50;;;;;;5032169;28;20022;-59
2022/05/22 06:59:23;;;;;;;4.10;2.83;;;31.50;82.80;;;;;;5034176;28;20017;-59
2022/05/22 07:01:49;;;;;;;4.43;2.63;;;31.80;79.40;;;;;;5032474;28;20021;-58
2022/05/22 07:04:14;;;;;;;4.47;3.00;;;31.80;78.00;;;;;;5031972;28;20022;-60
2022/05/22 07:06:40;;;;;;;6.50;2.50;;;31.40;78.20;;;;;;5033113;28;20040;-57
2022/05/22 07:09:05;;;;;;;7.70;3.15;;;30.50;78.10;;;;;;5033044;28;20033;-59
2022/05/22 07:11:40;;;;;;;6.88;2.85;;;30.10;77.00;;;;;;5032175;28;20048;-58
2022/05/22 07:14:11;;;;;;;3.50;1.90;;;29.70;79.80;;;;;;5033187;28;20031;-58
2022/05/22 07:16:38;;;;;;;7.55;2.22;;;30.00;84.20;;;;;;5032019;28;20026;-58
2022/05/22 07:19:05;;;;;;;5.78;3.10;;;30.60;80.00;;;;;;5031760;28;20029;-58
2022/05/22 07:21:31;;;;;;;4.85;2.80;;;30.80;77.60;;;;;;5031610;28;20155;-58
2022/05/22 07:23:59;;;;;;;8.30;3.33;;;31.20;77.70;;;;;;5032882;28;20041;-58
2022/05/22 07:26:26;;;;;;;7.10;2.92;;;30.80;77.30;;;;;;5033188;28;20109;-57
2022/05/22 07:28:52;;;;;;;5.55;2.58;;;30.70;77.30;;;;;;5032191;28;20061;-58
2022/05/22 07:31:21;;;;;;;5.35;2.60;;;30.60;78.60;;;;;;5036695;28;20021;-58
2022/05/22 07:33:46;;;;;;;4.10;2.33;;;30.90;78.30;;;;;;5036802;28;20473;-56
2022/05/22 07:36:12;;;;;;;5.88;2.78;;;32.00;77.10;;;;;;5035119;28;20045;-58
2022/05/22 07:38:38;;;;;;;4.70;2.30;;;32.50;74.20;;;;;;5036442;28;20033;-56
2022/05/22 07:41:04;;;;;;;5.25;3.00;;;33.30;73.30;;;;;;5036392;28;20021;-57
2022/05/22 07:43:29;;;;;;;11.18;2.72;;;34.00;71.20;;;;;;5035156;28;20022;-58
2022/05/22 07:45:55;;;;;;;2.78;2.00;;;34.30;72.70;;;;;;5035521;28;20026;-58
2022/05/22 07:48:21;;;;;;;5.28;2.72;;;34.70;72.50;;;;;;5035015;28;20541;-55
2022/05/22 07:50:47;;;;;;;6.75;2.90;;;35.40;68.50;;;;;;5036610;28;20017;-58
2022/05/22 07:53:13;;;;;;;4.65;2.40;;;34.60;68.70;;;;;;5036283;28;20120;-55
2022/05/22 07:55:41;;;;;;;5.43;2.85;;;35.70;67.20;;;;;;5035759;28;20092;-58
2022/05/22 07:58:07;;;;;;;5.80;2.35;;;36.50;65.00;;;;;;5034959;28;20060;-54
2022/05/22 08:00:32;;;;;;;4.85;2.40;;;36.50;65.90;;;;;;5035206;28;20053;-53
2022/05/22 08:02:59;;;;;;;5.47;2.75;;;36.80;65.40;;;;;;5036136;28;20021;-56
2022/05/22 08:05:24;;;;;;;9.55;2.60;;;36.90;61.30;;;;;;5034892;28;20484;-56
2022/05/22 08:07:50;;;;;;;4.95;2.53;;;36.90;61.40;;;;;;5035054;28;20077;-55
2022/05/22 08:10:17;;;;;;;7.70;2.58;;;37.70;62.60;;;;;;5036073;28;20029;-58
2022/05/22 08:12:45;;;;;;;5.93;3.50;;;37.60;59.20;;;;;;5035001;28;20025;-58
2022/05/22 08:15:13;;;;;;;9.48;3.40;;;36.20;59.30;;;;;;5034844;28;20040;-57
2022/05/22 08:17:39;;;;;;;4.88;2.70;;;36.00;59.90;;;;;;5034781;28;20029;-58
2022/05/22 08:20:12;;;;;;;3.67;2.10;;;36.60;60.70;;;;;;5035806;28;20025;-58
2022/05/22 08:22:38;;;;;;;6.72;2.50;;;37.50;59.50;;;;;;5035521;28;20074;-61
2022/05/22 08:25:05;;;;;;;6.63;3.25;;;37.90;58.70;;;;;;5034376;28;20025;-60
2022/05/22 08:27:31;;;;;;;5.18;2.50;;;36.80;57.50;;;;;;5050968;28;20029;-60
2022/05/22 08:29:56;;;;;;;7.00;2.50;;;36.40;59.80;;;;;;5034476;28;20063;-60
2022/05/22 08:32:22;;;;;;;6.90;3.00;;;36.60;56.20;;;;;;5035522;28;20063;-59
2022/05/22 08:34:48;;;;;;;6.10;2.70;;;36.20;55.00;;;;;;5034462;28;20044;-58
2022/05/22 08:37:14;;;;;;;6.55;3.28;;;35.30;55.60;;;;;;5035548;28;20030;-59
2022/05/22 08:39:39;;;;;;;6.18;2.08;;;34.50;56.20;;;;;;5034388;28;20021;-61
2022/05/22 08:42:13;;;;;;;3.38;1.92;;;34.80;60.40;;;;;;5034522;28;20039;-60
2022/05/22 08:44:40;;;;;;;5.72;2.35;;;36.40;58.20;;;;;;5034399;28;20125;-61
2022/05/22 08:47:22;;;;;;;6.70;2.40;;;37.70;56.80;;;;;;5035195;28;20029;-61
2022/05/22 08:49:50;;;;;;;10.35;2.78;;;38.90;55.00;;;;;;5034838;28;20028;-61
2022/05/22 08:52:19;;;;;;;7.50;2.45;;;38.90;53.60;;;;;;5035299;28;20053;-60
2022/05/22 08:54:54;;;;;;;5.75;3.00;;;39.30;53.30;;;;;;5033803;28;20025;-60
2022/05/22 09:00:25;;;;;;;4.85;2.40;;;39.70;48.80;;;;;;5015855;28;20041;-61
2022/05/22 09:03:00;;;;;;;7.25;2.70;;;38.30;53.30;;;;;;5034674;28;20021;-59
2022/05/22 09:05:29;;;;;;;12.00;3.88;;;39.10;52.80;;;;;;5034596;28;20092;-60
2022/05/22 09:08:07;;;;;;;9.13;3.70;;;36.90;52.20;;;;;;5034407;28;20080;-60
2022/05/22 09:11:10;;;;;;;7.75;3.30;;;34.90;52.90;;;;;;5033673;28;20034;-60
2022/05/22 09:13:57;;;;;;;6.95;3.30;;;33.80;55.50;;;;;;5034753;28;20135;-60
2022/05/22 09:16:46;;;;;;;7.38;3.50;;;34.00;55.00;;;;;;5033495;28;20026;-60
2022/05/22 09:19:26;;;;;;;4.82;2.70;;;34.50;54.40;;;;;;4997886;28;20049;-60
2022/05/22 09:22:24;;;;;;;6.97;2.92;;;34.90;54.30;;;;;;5033467;28;20064;-61
2022/05/22 09:25:05;;;;;;;4.55;2.47;;;35.60;52.60;;;;;;5034707;28;20056;-61
2022/05/22 09:27:56;;;;;;;10.48;3.42;;;36.30;53.50;;;;;;5033866;28;20127;-61
2022/05/22 09:30:54;;;;;;;7.85;2.45;;;37.00;51.00;;;;;;5034665;28;20029;-60
2022/05/22 09:33:27;;;;;;;5.72;2.90;;;35.70;52.20;;;;;;5025488;28;20034;-58
2022/05/22 09:36:24;;;;;;;6.65;2.97;;;35.10;51.80;;;;;;5033397;28;20041;-58
2022/05/22 09:39:14;;;;;;;6.43;2.85;;;35.80;52.40;;;;;;5027227;28;20041;-59
2022/05/22 09:41:48;;;;;;;7.22;2.13;;;35.00;51.20;;;;;;5033102;28;20021;-59
2022/05/22 09:44:32;;;;;;;3.30;2.30;;;35.60;52.60;;;;;;5033703;28;20025;-60
2022/05/22 09:47:13;;;;;;;6.20;2.42;;;37.10;51.40;;;;;;5034515;28;20075;-60
2022/05/22 09:50:16;;;;;;;7.50;2.70;;;37.40;53.00;;;;;;5033014;28;20064;-59
2022/05/22 09:53:04;;;;;;;5.60;2.20;;;38.40;50.50;;;;;;5032708;28;20072;-60
2022/05/22 09:55:41;;;;;;;6.50;1.90;;;37.60;50.90;;;;;;5034014;28;20047;-58
2022/05/22 09:58:24;;;;;;;8.68;2.13;;;38.50;51.50;;;;;;5032801;28;20029;-59
2022/05/22 10:01:10;;;;;;;4.53;1.85;;;39.80;50.10;;;;;;5034204;28;20025;-60
2022/05/22 10:04:03;;;;;;;4.57;1.70;;;40.50;47.70;;;;;;5032699;28;20056;-57
2022/05/22 10:06:48;;;;;;;3.55;1.77;;;39.50;49.50;;;;;;5033987;28;20030;-60
2022/05/22 10:09:14;;;;;;;4.75;2.00;;;38.90;50.50;;;;;;5033860;28;20025;-60
2022/05/22 10:11:50;;;;;;;4.03;1.88;;;38.20;49.70;;;;;;5033140;28;20421;-60
2022/05/22 10:14:56;;;;;;;5.45;1.92;;;37.60;51.40;;;;;;5032449;28;20022;-60
2022/05/22 10:17:39;;;;;;;5.03;1.60;;;37.80;51.60;;;;;;5033671;28;20113;-60
2022/05/22 10:20:18;;;;;;;6.32;2.13;;;37.70;52.10;;;;;;5033694;28;20025;-60
2022/05/22 10:23:21;;;;;;;7.82;2.88;;;37.80;50.80;;;;;;5032973;28;20037;-60
2022/05/22 10:26:05;;;;;;;8.43;2.83;;;35.80;50.20;;;;;;5032641;28;20140;-59
2022/05/22 10:28:37;;;;;;;6.35;2.20;;;32.60;52.70;;;;;;5033688;28;20033;-59
2022/05/22 10:31:07;;;;;;;7.65;2.70;;;30.70;56.00;;;;;;5032244;28;20120;-58
2022/05/22 10:34:01;;;;;;;7.90;2.42;;;30.10;56.10;;;;;;5033289;28;20024;-58
2022/05/22 10:36:33;;;;;;;4.07;1.77;;;29.40;57.80;;;;;;5032149;28;20053;-57
2022/05/22 10:39:11;;;;;;;2.58;1.40;;;29.40;60.20;;;;;;5034001;28;20060;-57
2022/05/22 10:44:46;;;;;;;3.70;1.92;;;29.70;57.90;;;;;;5033291;28;20041;-56
2022/05/22 10:47:12;;;;;;;7.80;1.90;;;30.10;58.30;;;;;;5032278;28;20033;-58
2022/05/22 10:49:45;;;;;;;6.30;2.30;;;30.00;58.00;;;;;;5032940;28;20075;-58
2022/05/22 10:52:22;;;;;;;9.98;2.33;;;29.80;58.80;;;;;;5032342;28;20026;-59
2022/05/22 10:54:50;;;;;;;7.28;2.28;;;30.00;59.30;;;;;;5033091;28;20057;-59
2022/05/22 10:57:19;;;;;;;4.60;2.00;;;30.10;60.20;;;;;;5033518;28;20032;-59
2022/05/22 10:59:47;;;;;;;3.88;1.73;;;30.10;58.10;;;;;;5033534;28;20029;-59
2022/05/22 11:02:23;;;;;;;4.40;1.60;;;29.80;58.30;;;;;;5033327;28;20025;-59
2022/05/22 11:04:51;;;;;;;5.78;1.83;;;30.00;61.20;;;;;;5035433;28;20057;-59
2022/05/22 11:07:41;;;;;;;3.67;1.58;;;29.50;57.60;;;;;;5036982;28;20029;-58
2022/05/22 11:10:21;;;;;;;4.13;1.70;;;29.00;62.50;;;;;;5037276;28;20537;-58
2022/05/22 11:12:57;;;;;;;7.85;1.73;;;29.00;61.90;;;;;;5035861;28;20116;-59
2022/05/22 11:15:28;;;;;;;9.63;1.90;;;29.20;63.80;;;;;;5036626;28;20112;-59
2022/05/22 11:18:02;;;;;;;5.78;2.10;;;29.20;60.50;;;;;;5036958;28;20109;-59
2022/05/22 11:20:28;;;;;;;4.88;2.00;;;28.70;59.80;;;;;;5035814;28;20057;-56
2022/05/22 11:23:03;;;;;;;4.35;1.70;;;28.70;61.70;;;;;;5035803;28;20076;-57
2022/05/22 11:25:49;;;;;;;6.07;1.77;;;28.60;64.60;;;;;;5036090;28;20026;-56
2022/05/22 11:28:30;;;;;;;4.45;1.85;;;28.60;60.00;;;;;;5035678;28;20049;-59
2022/05/22 11:31:26;;;;;;;6.15;1.92;;;28.70;63.80;;;;;;5037070;28;20107;-58
2022/05/22 11:34:21;;;;;;;5.03;1.52;;;28.80;62.10;;;;;;5036423;28;20033;-58
2022/05/22 11:37:10;;;;;;;3.88;1.60;;;28.60;60.50;;;;;;5036614;28;20059;-58
2022/05/22 11:39:56;;;;;;;6.15;1.95;;;28.50;60.20;;;;;;5035421;28;20030;-59
2022/05/22 11:42:32;;;;;;;5.63;1.80;;;28.30;61.80;;;;;;5051924;28;20029;-59
2022/05/22 11:45:18;;;;;;;6.95;1.67;;;28.20;61.50;;;;;;5036562;28;20108;-58
2022/05/22 11:48:11;;;;;;;2.80;1.30;;;28.20;61.80;;;;;;5035145;28;20029;-58
2022/05/22 11:51:06;;;;;;;3.97;1.33;;;28.10;62.40;;;;;;5036380;28;20017;-59
2022/05/22 11:54:07;;;;;;;3.08;1.50;;;28.00;62.00;;;;;;5036327;28;20025;-59
2022/05/22 11:56:38;;;;;;;3.97;2.10;;;28.00;62.50;;;;;;5036297;28;20029;-57
2022/05/22 11:59:24;;;;;;;1.98;1.15;;;28.00;63.10;;;;;;5036319;28;20018;-59
2022/05/22 12:02:16;;;;;;;6.78;1.75;;;27.90;63.50;;;;;;5035046;28;20029;-59
2022/05/22 12:04:51;;;;;;;4.57;1.50;;;27.70;66.70;;;;;;5036521;28;20030;-56
2022/05/22 12:07:38;;;;;;;6.13;1.92;;;27.70;62.90;;;;;;5036462;28;20030;-59
2022/05/22 12:10:34;;;;;;;3.38;1.75;;;27.20;60.90;;;;;;5034795;28;20503;-58
2022/05/22 12:13:10;;;;;;;5.25;2.08;;;27.30;67.90;;;;;;5018566;28;20120;-59
2022/05/22 12:16:01;;;;;;;4.25;1.52;;;27.40;64.50;;;;;;5034161;28;20112;-58
2022/05/22 12:18:57;;;;;;;6.20;1.60;;;27.60;66.00;;;;;;5036158;28;20025;-57
2022/05/22 12:21:55;;;;;;;4.70;1.30;;;27.70;63.30;;;;;;5035822;28;20022;-58
2022/05/22 12:24:32;;;;;;;4.95;1.98;;;27.70;62.50;;;;;;5035318;28;20021;-58
2022/05/22 12:27:04;;;;;;;4.10;2.05;;;27.50;61.00;;;;;;5034404;28;20026;-58
2022/05/22 12:29:42;;;;;;;4.13;1.70;;;27.10;61.20;;;;;;5034592;28;20025;-59
2022/05/22 12:32:23;;;;;;;3.13;1.60;;;26.50;61.30;;;;;;5035951;28;20073;-58
2022/05/22 12:34:55;;;;;;;2.50;1.23;;;25.90;65.00;;;;;;5035623;28;20399;-59
2022/05/22 12:37:37;;;;;;;8.82;1.42;;;26.10;67.90;;;;;;5035727;28;20048;-59
2022/05/22 12:40:28;;;;;;;3.33;1.20;;;26.50;68.20;;;;;;5035503;28;20036;-57
2022/05/22 12:42:58;;;;;;;5.65;1.55;;;26.70;65.90;;;;;;5034198;28;20076;-56
2022/05/22 12:45:26;;;;;;;3.22;1.30;;;26.80;63.70;;;;;;5034931;28;20032;-59
2022/05/22 12:47:53;;;;;;;4.22;1.48;;;26.70;62.50;;;;;;5035343;28;20025;-57
2022/05/22 12:50:46;;;;;;;3.15;1.70;;;26.70;61.60;;;;;;5034504;28;20028;-57
2022/05/22 12:53:29;;;;;;;2.35;1.27;;;26.70;66.20;;;;;;5030637;28;20037;-57
2022/05/22 12:55:55;;;;;;;4.72;1.33;;;26.60;65.90;;;;;;5034623;28;20159;-58
2022/05/22 12:58:40;;;;;;;5.20;1.60;;;26.60;64.20;;;;;;5035174;28;20112;-52
2022/05/22 13:01:28;;;;;;;2.40;1.55;;;25.80;61.80;;;;;;5035088;28;20021;-58
2022/05/22 13:03:57;;;;;;;6.60;2.80;;;25.90;67.70;;;;;;5033856;28;20029;-54
2022/05/22 13:06:31;;;;;;;3.70;1.48;;;26.00;65.70;;;;;;5034971;28;20052;-59
2022/05/22 13:09:02;;;;;;;2.90;1.55;;;26.00;64.00;;;;;;5033716;28;20109;-58
2022/05/22 13:12:06;;;;;;;3.78;1.42;;;26.20;67.50;;;;;;5034753;28;20068;-58
2022/05/22 13:14:57;;;;;;;4.18;1.33;;;26.10;61.60;;;;;;5031048;28;20068;-57
2022/05/22 13:17:39;;;;;;;7.32;1.77;;;26.10;68.60;;;;;;5035352;28;20028;-56
2022/05/22 13:20:29;;;;;;;4.95;1.50;;;25.90;64.10;;;;;;5035155;28;20041;-58